Time;durP1;ratioP1;P1;durP2;ratioP2;P2;SDS_P1;SDS_P2;PMS_P1;PMS_P2;Temp;Humidity;BMP_temperature;BMP_pressure;BME280_temperature;BME280_humidity;BME280_pressure;Samples;Min_cycle;Max_cycle;Signal;HPM_P1;HPM_P2
2022/09/04 00:01:21;;;;;;;4.15;1.52;;;;;;;;;;5050897;28;20120;-79
2022/09/04 00:03:53;;;;;;;2.55;1.60;;;;;;;;;;5050736;28;20041;-79
2022/09/04 00:06:23;;;;;;;4.60;1.75;;;;;;;;;;5050938;28;20049;-79
2022/09/04 00:08:49;;;;;;;5.85;1.60;;;;;;;;;;5050813;28;20041;-79
2022/09/04 00:11:34;;;;;;;3.83;1.60;;;;;;;;;;5049966;28;20112;-79
2022/09/04 00:14:02;;;;;;;4.35;1.70;;;;;;;;;;5034495;28;20051;-79
2022/09/04 00:16:49;;;;;;;3.60;1.83;;;;;;;;;;5051253;28;20045;-79
2022/09/04 00:19:20;;;;;;;4.97;1.70;;;;;;;;;;5027716;28;20060;-79
2022/09/04 00:21:51;;;;;;;7.15;1.60;;;;;;;;;;5050434;28;20102;-79
2022/09/04 00:24:19;;;;;;;5.85;1.90;;;;;;;;;;5050842;28;20115;-79
2022/09/04 00:26:53;;;;;;;4.28;1.63;;;;;;;;;;5033572;28;20397;-79
2022/09/04 00:29:20;;;;;;;5.78;1.70;;;;;;;;;;5051081;28;20055;-79
2022/09/04 00:31:57;;;;;;;5.28;1.63;;;;;;;;;;5050196;28;20037;-79
2022/09/04 00:34:26;;;;;;;2.92;1.48;;;;;;;;;;5034362;28;20072;-79
2022/09/04 00:36:55;;;;;;;3.33;1.70;;;;;;;;;;5050473;28;20045;-79
2022/09/04 00:39:27;;;;;;;3.95;1.60;;;;;;;;;;5050679;28;20123;-79
2022/09/04 00:42:16;;;;;;;3.60;1.70;;;;;;;;;;5050451;28;20103;-79
2022/09/04 00:44:51;;;;;;;6.20;1.70;;;;;;;;;;5051503;28;20036;-79
2022/09/04 00:47:26;;;;;;;8.02;2.05;;;;;;;;;;5050536;28;20049;-79
2022/09/04 00:49:56;;;;;;;3.53;1.50;;;;;;;;;;5050820;28;20052;-79
2022/09/04 00:52:37;;;;;;;3.58;1.70;;;;;;;;;;5050837;28;20470;-79
2022/09/04 00:55:10;;;;;;;8.50;1.80;;;;;;;;;;5050585;28;20041;-79
2022/09/04 00:57:51;;;;;;;6.43;1.90;;;;;;;;;;5050055;28;20041;-79
2022/09/04 01:00:21;;;;;;;4.68;1.73;;;;;;;;;;5050786;28;20505;-79
2022/09/04 01:02:47;;;;;;;3.72;1.60;;;;;;;;;;5050465;28;20541;-79
2022/09/04 01:05:25;;;;;;;5.15;1.90;;;;;;;;;;5034066;28;20076;-79
2022/09/04 01:08:10;;;;;;;4.38;1.65;;;;;;;;;;5033763;28;20405;-79
2022/09/04 01:11:05;;;;;;;3.22;1.60;;;;;;;;;;5049643;28;20048;-79
2022/09/04 01:13:59;;;;;;;3.92;1.40;;;;;;;;;;5048621;28;20075;-79
2022/09/04 01:16:35;;;;;;;4.47;1.77;;;;;;;;;;5055803;28;20057;-79
2022/09/04 01:19:06;;;;;;;3.40;1.63;;;;;;;;;;5066655;28;20076;-79
2022/09/04 01:21:47;;;;;;;3.40;1.75;;;;;;;;;;5050630;28;20099;-79
2022/09/04 01:24:16;;;;;;;6.38;1.67;;;;;;;;;;5053971;28;20127;-79
2022/09/04 01:27:00;;;;;;;3.75;1.60;;;;;;;;;;5053178;28;20139;-79
2022/09/04 01:29:45;;;;;;;4.10;1.70;;;;;;;;;;5054089;28;20129;-79
2022/09/04 01:32:28;;;;;;;4.78;1.80;;;;;;;;;;5053870;28;20125;-79
2022/09/04 01:35:04;;;;;;;2.63;1.80;;;;;;;;;;5053468;28;20033;-79
2022/09/04 01:37:41;;;;;;;5.07;1.90;;;;;;;;;;5040614;28;20095;-79
2022/09/04 01:40:25;;;;;;;3.42;1.55;;;;;;;;;;5053778;28;20592;-79
2022/09/04 01:43:12;;;;;;;4.13;1.60;;;;;;;;;;5053035;28;20041;-79
2022/09/04 01:45:48;;;;;;;3.33;1.65;;;;;;;;;;5052922;28;20053;-79
2022/09/04 01:48:17;;;;;;;5.22;1.60;;;;;;;;;;5053405;28;20051;-79
2022/09/04 01:50:44;;;;;;;5.20;1.65;;;;;;;;;;5053827;28;20151;-79
2022/09/04 01:53:27;;;;;;;4.32;1.88;;;;;;;;;;5036570;28;20107;-79
2022/09/04 01:56:13;;;;;;;3.78;1.90;;;;;;;;;;5052811;28;20052;-79
2022/09/04 01:58:56;;;;;;;7.75;1.77;;;;;;;;;;5052767;28;20148;-79
2022/09/04 02:01:31;;;;;;;4.15;1.80;;;;;;;;;;5035702;28;20037;-79
2022/09/04 02:04:06;;;;;;;3.90;1.60;;;;;;;;;;5047432;28;20048;-79
2022/09/04 02:06:50;;;;;;;3.00;1.77;;;;;;;;;;5030381;28;20056;-79
2022/09/04 02:09:25;;;;;;;3.20;1.65;;;;;;;;;;5052137;28;20037;-79
2022/09/04 02:12:12;;;;;;;4.93;1.73;;;;;;;;;;5042532;28;20068;-79
2022/09/04 02:14:50;;;;;;;2.50;1.70;;;;;;;;;;5042285;28;20403;-78
2022/09/04 02:17:36;;;;;;;3.83;1.85;;;;;;;;;;5045326;28;20037;-78
2022/09/04 02:20:02;;;;;;;;;;;;;;;;;;5024498;28;20084;-80
2022/09/04 02:22:43;;;;;;;3.83;1.75;;;;;;;;;;5052843;28;19916;-78
2022/09/04 02:25:28;;;;;;;4.93;1.90;;;;;;;;;;5053121;28;20105;-80
2022/09/04 02:28:03;;;;;;;3.45;1.80;;;;;;;;;;5051916;28;20037;-78
2022/09/04 02:30:33;;;;;;;11.50;3.65;;;;;;;;;;5052699;28;20041;-78
2022/09/04 02:33:03;;;;;;;4.68;2.05;;;;;;;;;;5051519;28;20045;-79
2022/09/04 02:35:46;;;;;;;6.32;2.55;;;;;;;;;;5039033;28;20045;-79
2022/09/04 02:38:17;;;;;;;4.57;2.10;;;;;;;;;;5053817;28;20045;-79
2022/09/04 02:41:19;;;;;;;6.25;2.13;;;;;;;;;;5052258;28;20102;-79
2022/09/04 02:44:04;;;;;;;4.15;2.20;;;;;;;;;;5034297;28;20444;-79
2022/09/04 02:46:30;;;;;;;6.00;2.20;;;;;;;;;;5051165;28;20509;-78
2022/09/04 02:49:06;;;;;;;2.70;1.90;;;;;;;;;;5051855;28;20048;-78
2022/09/04 02:51:44;;;;;;;5.18;2.03;;;;;;;;;;5052308;28;20041;-78
2022/09/04 02:54:17;;;;;;;4.72;2.38;;;;;;;;;;5038583;28;20390;-79
2022/09/04 02:56:48;;;;;;;5.18;2.08;;;;;;;;;;5051854;28;20049;-79
2022/09/04 02:59:39;;;;;;;3.45;1.90;;;;;;;;;;5035748;28;20072;-78
2022/09/04 03:02:07;;;;;;;5.07;2.00;;;;;;;;;;5035832;28;20544;-79
2022/09/04 03:04:52;;;;;;;4.32;2.00;;;;;;;;;;5052112;28;20489;-78
2022/09/04 03:07:29;;;;;;;5.53;2.10;;;;;;;;;;5051948;28;20041;-78
2022/09/04 03:10:11;;;;;;;4.03;2.28;;;;;;;;;;5051979;28;20078;-79
2022/09/04 03:12:37;;;;;;;3.88;2.20;;;;;;;;;;5051612;28;20029;-78
2022/09/04 03:15:08;;;;;;;6.28;2.10;;;;;;;;;;5051316;28;20120;-79
2022/09/04 03:17:45;;;;;;;6.45;1.90;;;;;;;;;;5051993;28;20580;-79
2022/09/04 03:20:20;;;;;;;4.78;2.20;;;;;;;;;;5053404;28;20044;-79
2022/09/04 03:23:05;;;;;;;4.57;2.05;;;;;;;;;;5034581;28;20045;-78
2022/09/04 03:25:46;;;;;;;5.72;2.33;;;;;;;;;;5040542;28;20128;-79
2022/09/04 03:28:17;;;;;;;4.55;2.00;;;;;;;;;;5051448;28;20037;-78
2022/09/04 03:30:43;;;;;;;3.83;2.20;;;;;;;;;;5051052;28;20037;-79
2022/09/04 03:33:27;;;;;;;5.80;2.28;;;;;;;;;;5035021;28;20485;-78
2022/09/04 03:36:02;;;;;;;4.22;2.10;;;;;;;;;;5050955;28;20045;-79
2022/09/04 03:38:32;;;;;;;3.77;2.00;;;;;;;;;;5034994;28;20095;-79
2022/09/04 03:40:59;;;;;;;6.63;2.20;;;;;;;;;;5051050;28;20067;-79
2022/09/04 03:43:29;;;;;;;4.45;2.20;;;;;;;;;;5051201;28;20049;-79
2022/09/04 03:46:05;;;;;;;4.97;2.30;;;;;;;;;;5051233;28;20120;-78
2022/09/04 03:48:43;;;;;;;4.45;2.22;;;;;;;;;;5051340;28;20056;-79
2022/09/04 03:51:28;;;;;;;6.10;2.40;;;;;;;;;;5052561;28;20044;-78
2022/09/04 03:54:03;;;;;;;4.90;2.70;;;;;;;;;;5051142;28;20052;-79
2022/09/04 03:56:32;;;;;;;4.75;2.20;;;;;;;;;;5051980;28;20053;-79
2022/09/04 03:59:04;;;;;;;5.60;2.40;;;;;;;;;;5050969;28;20047;-78
2022/09/04 04:01:33;;;;;;;4.63;2.22;;;;;;;;;;5050660;28;20045;-79
2022/09/04 04:04:18;;;;;;;3.72;2.50;;;;;;;;;;5025446;28;20041;-79
2022/09/04 04:06:44;;;;;;;5.55;2.53;;;;;;;;;;5042543;28;20041;-79
2022/09/04 04:09:30;;;;;;;3.20;2.40;;;;;;;;;;5040195;28;20045;-79
2022/09/04 04:12:11;;;;;;;3.73;2.50;;;;;;;;;;5050807;28;20045;-79
2022/09/04 04:14:44;;;;;;;4.03;2.50;;;;;;;;;;5038132;28;20069;-79
2022/09/04 04:17:17;;;;;;;6.82;2.50;;;;;;;;;;5037066;28;20119;-79
2022/09/04 04:19:43;;;;;;;8.68;2.53;;;;;;;;;;5044534;28;20073;-79
2022/09/04 04:22:28;;;;;;;2.90;2.22;;;;;;;;;;5047934;28;20041;-79
2022/09/04 04:25:15;;;;;;;4.00;2.58;;;;;;;;;;5033810;28;20040;-79
2022/09/04 04:28:06;;;;;;;11.02;2.85;;;;;;;;;;5050660;28;20049;-79
2022/09/04 04:30:48;;;;;;;4.82;2.63;;;;;;;;;;5038936;28;20175;-79
2022/09/04 04:33:14;;;;;;;5.07;2.80;;;;;;;;;;5034210;28;20138;-79
2022/09/04 04:36:02;;;;;;;5.22;2.50;;;;;;;;;;5051937;28;20073;-79
2022/09/04 04:38:47;;;;;;;5.07;2.65;;;;;;;;;;5050825;28;20072;-79
2022/09/04 04:41:30;;;;;;;4.22;2.55;;;;;;;;;;5050373;28;20056;-79
2022/09/04 04:44:02;;;;;;;4.20;2.90;;;;;;;;;;5050389;28;20037;-79
2022/09/04 04:46:37;;;;;;;3.97;2.70;;;;;;;;;;5050761;28;20488;-79
2022/09/04 04:49:12;;;;;;;5.30;2.87;;;;;;;;;;5033734;28;20033;-78
2022/09/04 04:51:57;;;;;;;8.05;3.08;;;;;;;;;;5050955;28;20041;-79
2022/09/04 04:54:27;;;;;;;5.35;2.80;;;;;;;;;;5039813;28;20057;-78
2022/09/04 04:56:53;;;;;;;5.35;3.00;;;;;;;;;;5051365;28;20041;-79
2022/09/04 04:59:29;;;;;;;4.53;2.70;;;;;;;;;;5054621;28;20089;-78
2022/09/04 05:01:55;;;;;;;;;;;;;;;;;;5054611;28;20051;-79
2022/09/04 05:04:40;;;;;;;6.47;2.90;;;;;;;;;;5054268;28;19921;-79
2022/09/04 05:07:16;;;;;;;4.95;2.80;;;;;;;;;;5053570;28;20045;-79
2022/09/04 05:09:50;;;;;;;4.45;2.67;;;;;;;;;;5054250;28;20037;-79
2022/09/04 05:12:22;;;;;;;5.38;2.63;;;;;;;;;;5053767;28;20037;-79
2022/09/04 05:14:51;;;;;;;4.07;2.75;;;;;;;;;;5037476;28;20033;-79
2022/09/04 05:17:21;;;;;;;6.32;2.78;;;;;;;;;;5053636;28;20132;-79
2022/09/04 05:19:51;;;;;;;5.90;2.92;;;;;;;;;;5054262;28;20512;-79
2022/09/04 05:22:25;;;;;;;6.32;2.90;;;;;;;;;;5053626;28;20052;-79
2022/09/04 05:25:10;;;;;;;4.47;2.60;;;;;;;;;;5053809;28;20125;-79
2022/09/04 05:27:55;;;;;;;5.43;2.85;;;;;;;;;;5054008;28;20065;-79
2022/09/04 05:30:35;;;;;;;6.63;2.78;;;;;;;;;;5023613;28;20040;-79
2022/09/04 05:33:07;;;;;;;5.22;2.92;;;;;;;;;;5053190;28;20037;-79
2022/09/04 05:35:42;;;;;;;4.50;2.72;;;;;;;;;;5055041;28;20068;-79
2022/09/04 05:38:08;;;;;;;8.30;2.53;;;;;;;;;;5053238;28;20045;-79
2022/09/04 05:40:57;;;;;;;6.07;2.83;;;;;;;;;;5053830;28;20524;-79
2022/09/04 05:43:39;;;;;;;5.68;2.70;;;;;;;;;;5036937;28;20045;-79
2022/09/04 05:46:10;;;;;;;6.10;2.40;;;;;;;;;;5036575;28;20135;-79
2022/09/04 05:48:42;;;;;;;8.43;2.63;;;;;;;;;;5053308;28;20045;-79
2022/09/04 05:51:23;;;;;;;4.35;2.80;;;;;;;;;;5053257;28;20056;-79
2022/09/04 05:53:58;;;;;;;4.60;2.60;;;;;;;;;;5053220;28;20048;-79
2022/09/04 05:56:36;;;;;;;4.32;2.60;;;;;;;;;;5053196;28;20045;-79
2022/09/04 05:59:05;;;;;;;3.95;2.58;;;;;;;;;;5052947;28;20029;-79
2022/09/04 06:01:48;;;;;;;4.63;2.50;;;;;;;;;;5036781;28;20032;-79
2022/09/04 06:04:25;;;;;;;7.78;2.72;;;;;;;;;;5052783;28;20033;-79
2022/09/04 06:06:54;;;;;;;6.25;2.50;;;;;;;;;;5036493;28;20052;-79
2022/09/04 06:09:20;;;;;;;4.00;2.67;;;;;;;;;;5051959;28;20040;-79
2022/09/04 06:11:58;;;;;;;4.55;2.30;;;;;;;;;;5036672;28;20123;-78
2022/09/04 06:14:43;;;;;;;4.78;2.70;;;;;;;;;;5052799;28;20065;-79
2022/09/04 06:17:18;;;;;;;6.90;2.80;;;;;;;;;;5052621;28;20045;-79
2022/09/04 06:20:03;;;;;;;6.00;2.80;;;;;;;;;;5039919;28;20052;-78
2022/09/04 06:22:29;;;;;;;4.68;2.53;;;;;;;;;;5053138;28;20049;-79
2022/09/04 06:25:09;;;;;;;6.72;2.60;;;;;;;;;;5052789;28;20076;-79
2022/09/04 06:27:47;;;;;;;4.38;2.78;;;;;;;;;;5036404;28;20047;-79
2022/09/04 06:30:14;;;;;;;6.10;3.03;;;;;;;;;;5052403;28;20064;-79
2022/09/04 06:32:52;;;;;;;5.05;2.45;;;;;;;;;;5052940;28;20548;-79
2022/09/04 06:35:22;;;;;;;7.18;2.60;;;;;;;;;;5052269;28;20163;-79
2022/09/04 06:38:07;;;;;;;7.55;2.90;;;;;;;;;;5035954;28;20041;-79
2022/09/04 06:40:52;;;;;;;4.90;2.70;;;;;;;;;;5038887;28;20041;-79
2022/09/04 06:43:18;;;;;;;5.05;2.60;;;;;;;;;;5052365;28;20417;-79
2022/09/04 06:46:12;;;;;;;5.25;2.70;;;;;;;;;;5052379;28;20060;-79
2022/09/04 06:48:45;;;;;;;5.57;2.50;;;;;;;;;;5052151;28;20136;-79
2022/09/04 06:51:19;;;;;;;4.72;2.53;;;;;;;;;;5052100;28;20397;-79
2022/09/04 06:53:45;;;;;;;4.60;2.10;;;;;;;;;;5053428;28;20473;-79
2022/09/04 06:56:26;;;;;;;5.72;2.45;;;;;;;;;;5051862;28;20144;-80
2022/09/04 06:59:01;;;;;;;5.25;2.22;;;;;;;;;;5032498;28;20065;-80
2022/09/04 07:01:38;;;;;;;4.63;2.58;;;;;;;;;;5042257;28;20099;-80
2022/09/04 07:04:17;;;;;;;4.45;2.50;;;;;;;;;;5052056;28;20045;-80
2022/09/04 07:06:52;;;;;;;4.88;2.55;;;;;;;;;;5053503;28;20047;-80
2022/09/04 07:09:26;;;;;;;4.97;2.38;;;;;;;;;;5051825;28;20118;-80
2022/09/04 07:12:07;;;;;;;4.60;2.30;;;;;;;;;;5052152;28;20072;-80
2022/09/04 07:14:37;;;;;;;4.93;2.30;;;;;;;;;;5038564;28;20068;-80
2022/09/04 07:17:10;;;;;;;7.43;2.70;;;;;;;;;;5051880;28;20049;-80
2022/09/04 07:19:36;;;;;;;9.43;2.30;;;;;;;;;;5051344;28;20098;-80
2022/09/04 07:22:09;;;;;;;5.47;2.40;;;;;;;;;;5035267;28;20044;-80
2022/09/04 07:24:55;;;;;;;4.20;2.30;;;;;;;;;;5051597;28;20049;-80
2022/09/04 07:27:42;;;;;;;7.63;2.50;;;;;;;;;;5051020;28;20045;-80
2022/09/04 07:30:09;;;;;;;6.60;2.88;;;;;;;;;;5053013;28;20556;-80
2022/09/04 07:32:48;;;;;;;4.85;2.42;;;;;;;;;;5051777;28;20045;-80
2022/09/04 07:35:23;;;;;;;4.38;2.55;;;;;;;;;;5051001;28;20040;-80
2022/09/04 07:38:03;;;;;;;4.47;2.47;;;;;;;;;;5051678;28;20497;-80
2022/09/04 07:40:33;;;;;;;5.80;2.83;;;;;;;;;;5035060;28;20049;-80
2022/09/04 07:42:59;;;;;;;3.80;2.60;;;;;;;;;;5051779;28;20444;-80
2022/09/04 07:45:35;;;;;;;6.07;2.42;;;;;;;;;;5034802;28;20029;-80
2022/09/04 07:48:01;;;;;;;;;;;;;;;;;;5052077;28;20084;-79
2022/09/04 07:50:40;;;;;;;6.30;3.03;;;;;;;;;;5051294;28;19923;-80
2022/09/04 07:53:18;;;;;;;5.80;2.97;;;;;;;;;;5051678;28;20132;-79
2022/09/04 07:55:46;;;;;;;4.88;2.88;;;;;;;;;;5051959;28;20378;-80
2022/09/04 07:58:20;;;;;;;3.95;2.53;;;;;;;;;;5051172;28;20041;-80
2022/09/04 08:00:46;;;;;;;4.10;2.55;;;;;;;;;;5051469;28;20041;-80
2022/09/04 08:03:17;;;;;;;3.70;2.70;;;;;;;;;;5034496;28;20072;-79
2022/09/04 08:06:13;;;;;;;3.63;2.97;;;;;;;;;;5051267;28;20052;-79
2022/09/04 08:08:54;;;;;;;5.28;2.85;;;;;;;;;;5051819;28;20065;-80
2022/09/04 08:11:26;;;;;;;6.55;3.33;;;;;;;;;;5038848;28;20122;-80
2022/09/04 08:14:17;;;;;;;5.03;2.90;;;;;;;;;;5034217;28;20068;-80
2022/09/04 08:16:51;;;;;;;4.97;3.00;;;;;;;;;;5051241;28;20045;-80
2022/09/04 08:19:17;;;;;;;3.92;2.55;;;;;;;;;;5050894;28;20472;-80
2022/09/04 08:21:44;;;;;;;10.00;2.90;;;;;;;;;;5034127;28;20119;-80
2022/09/04 08:24:10;;;;;;;4.18;2.50;;;;;;;;;;5034426;28;20515;-80
2022/09/04 08:26:36;;;;;;;4.80;2.90;;;;;;;;;;5050261;28;20037;-80
2022/09/04 08:29:02;;;;;;;4.68;2.65;;;;;;;;;;5050777;28;20072;-80
2022/09/04 08:31:34;;;;;;;6.90;2.88;;;;;;;;;;5034518;28;20041;-80
2022/09/04 08:34:07;;;;;;;5.72;2.80;;;;;;;;;;5055162;28;20107;-80
2022/09/04 08:36:51;;;;;;;3.88;2.70;;;;;;;;;;5054619;28;20117;-80
2022/09/04 08:39:45;;;;;;;4.32;2.80;;;;;;;;;;5054800;28;20033;-80
2022/09/04 08:42:17;;;;;;;4.75;2.90;;;;;;;;;;5055024;28;20041;-80
2022/09/04 08:45:03;;;;;;;4.55;2.53;;;;;;;;;;5055720;28;20051;-83
2022/09/04 08:47:44;;;;;;;3.92;2.63;;;;;;;;;;5054681;28;20471;-81
2022/09/04 08:50:21;;;;;;;4.47;2.90;;;;;;;;;;5038109;28;20036;-82
2022/09/04 08:52:51;;;;;;;4.80;3.00;;;;;;;;;;5037789;28;20044;-80
2022/09/04 08:55:23;;;;;;;6.00;2.50;;;;;;;;;;5054558;28;20049;-80
2022/09/04 08:58:04;;;;;;;5.18;3.03;;;;;;;;;;5054786;28;20048;-80
2022/09/04 09:00:50;;;;;;;6.32;2.75;;;;;;;;;;5054066;28;20045;-81
2022/09/04 09:03:19;;;;;;;3.72;3.00;;;;;;;;;;5037791;28;20124;-80
2022/09/04 09:06:05;;;;;;;3.15;2.47;;;;;;;;;;5054365;28;20045;-81
2022/09/04 09:08:38;;;;;;;5.00;2.60;;;;;;;;;;5037254;28;20088;-81
2022/09/04 09:11:23;;;;;;;4.72;2.10;;;;;;;;;;5037744;28;20056;-81
2022/09/04 09:13:49;;;;;;;3.35;2.28;;;;;;;;;;5037746;28;20044;-80
2022/09/04 09:16:22;;;;;;;5.43;2.42;;;;;;;;;;5037898;28;20072;-81
2022/09/04 09:19:06;;;;;;;4.68;2.30;;;;;;;;;;5055404;28;20102;-81
2022/09/04 09:21:41;;;;;;;5.00;2.25;;;;;;;;;;5041467;28;20047;-80
2022/09/04 09:24:19;;;;;;;5.13;2.65;;;;;;;;;;5054351;28;20041;-81
2022/09/04 09:27:12;;;;;;;3.83;2.25;;;;;;;;;;5053725;28;20378;-80
2022/09/04 09:29:38;;;;;;;5.28;2.50;;;;;;;;;;5040312;28;20550;-80
2022/09/04 09:32:23;;;;;;;4.50;2.50;;;;;;;;;;5054171;28;20119;-80
2022/09/04 09:35:07;;;;;;;5.50;2.47;;;;;;;;;;5037056;28;20048;-80
2022/09/04 09:37:53;;;;;;;2.65;2.00;;;;;;;;;;5053323;28;20055;-80
2022/09/04 09:40:18;;;;;;;;;;;;;;;;;;5054029;28;20119;-80
2022/09/04 09:42:54;;;;;;;4.50;2.70;;;;;;;;;;5053178;28;20011;-80
2022/09/04 09:45:34;;;;;;;3.38;2.30;;;;;;;;;;5053607;28;20102;-78
2022/09/04 09:48:19;;;;;;;3.92;2.58;;;;;;;;;;5053783;28;20049;-78
2022/09/04 09:51:03;;;;;;;3.97;2.20;;;;;;;;;;5039912;28;20494;-78
2022/09/04 09:53:48;;;;;;;3.53;2.37;;;;;;;;;;5052955;28;20570;-78
2022/09/04 09:56:26;;;;;;;3.33;2.40;;;;;;;;;;5053607;28;20321;-78
2022/09/04 09:59:11;;;;;;;3.30;2.40;;;;;;;;;;5053097;28;20094;-78
2022/09/04 10:01:40;;;;;;;4.60;2.30;;;;;;;;;;5052836;28;20120;-80
2022/09/04 10:04:13;;;;;;;5.15;2.50;;;;;;;;;;5053312;28;20037;-80
2022/09/04 10:06:39;;;;;;;4.63;2.50;;;;;;;;;;5036390;28;20091;-80
2022/09/04 10:09:23;;;;;;;5.20;2.35;;;;;;;;;;5036311;28;20033;-80
2022/09/04 10:12:09;;;;;;;3.15;2.50;;;;;;;;;;5036130;28;20079;-79
2022/09/04 10:14:51;;;;;;;5.78;2.42;;;;;;;;;;5039460;28;20045;-80
2022/09/04 10:17:21;;;;;;;3.83;2.42;;;;;;;;;;5053066;28;20041;-79
2022/09/04 10:19:53;;;;;;;3.63;2.03;;;;;;;;;;5052733;28;20568;-80
2022/09/04 10:22:35;;;;;;;3.58;2.10;;;;;;;;;;5053064;28;20037;-80
2022/09/04 10:25:19;;;;;;;4.85;2.58;;;;;;;;;;5052735;28;20082;-80
2022/09/04 10:28:02;;;;;;;3.20;2.20;;;;;;;;;;5052317;28;20037;-80
2022/09/04 10:30:34;;;;;;;3.33;2.22;;;;;;;;;;5040059;28;20123;-80
2022/09/04 10:33:03;;;;;;;3.72;2.20;;;;;;;;;;5052730;28;20041;-80
2022/09/04 10:35:35;;;;;;;5.32;2.13;;;;;;;;;;5035724;28;20033;-80
2022/09/04 10:38:01;;;;;;;2.58;1.88;;;;;;;;;;5052536;28;20102;-80
2022/09/04 10:40:37;;;;;;;5.00;2.22;;;;;;;;;;5052346;28;20103;-80
2022/09/04 10:43:08;;;;;;;6.18;2.53;;;;;;;;;;5035635;28;20094;-80
2022/09/04 10:45:56;;;;;;;3.10;2.38;;;;;;;;;;5035409;28;20045;-80
2022/09/04 10:48:37;;;;;;;3.50;2.47;;;;;;;;;;5051970;28;20105;-80
2022/09/04 10:51:22;;;;;;;4.28;2.22;;;;;;;;;;5052264;28;20045;-80
2022/09/04 10:53:57;;;;;;;2.92;1.90;;;;;;;;;;5051095;28;20051;-81
2022/09/04 10:56:28;;;;;;;3.35;2.70;;;;;;;;;;5051906;28;20049;-79
2022/09/04 10:59:14;;;;;;;4.00;2.25;;;;;;;;;;5051446;28;20029;-80
2022/09/04 11:01:55;;;;;;;3.08;2.20;;;;;;;;;;5034906;28;20037;-80
2022/09/04 11:04:28;;;;;;;3.92;2.40;;;;;;;;;;5038694;28;20044;-81
2022/09/04 11:06:54;;;;;;;5.38;2.30;;;;;;;;;;5051100;28;20055;-81
2022/09/04 11:09:39;;;;;;;2.78;1.88;;;;;;;;;;5051426;28;20044;-79
2022/09/04 11:12:32;;;;;;;2.95;1.75;;;;;;;;;;5051751;28;20098;-80
2022/09/04 11:15:14;;;;;;;4.38;2.55;;;;;;;;;;5041304;28;20041;-81
2022/09/04 11:17:58;;;;;;;4.38;2.00;;;;;;;;;;5050537;28;20037;-81
2022/09/04 11:20:24;;;;;;;7.05;2.80;;;;;;;;;;5051153;28;20052;-80
2022/09/04 11:22:54;;;;;;;2.85;2.10;;;;;;;;;;5050958;28;20383;-80
2022/09/04 11:25:30;;;;;;;2.67;1.92;;;;;;;;;;5050652;28;20044;-80
2022/09/04 11:28:11;;;;;;;5.15;2.15;;;;;;;;;;5050426;28;20453;-80
2022/09/04 11:31:00;;;;;;;4.57;2.00;;;;;;;;;;5035056;28;20051;-80
2022/09/04 11:33:46;;;;;;;3.03;2.00;;;;;;;;;;5051767;28;20040;-80
2022/09/04 11:36:24;;;;;;;5.43;3.00;;;;;;;;;;5052893;28;20041;-80
2022/09/04 11:39:03;;;;;;;4.05;2.45;;;;;;;;;;5037412;28;20041;-79
2022/09/04 11:41:42;;;;;;;3.47;2.30;;;;;;;;;;5051230;28;20072;-79
2022/09/04 11:44:24;;;;;;;3.55;2.17;;;;;;;;;;5039483;28;20406;-79
2022/09/04 11:47:10;;;;;;;6.18;2.13;;;;;;;;;;5050776;28;20102;-79
2022/09/04 11:49:39;;;;;;;5.10;2.58;;;;;;;;;;5034662;28;20040;-79
2022/09/04 11:52:05;;;;;;;3.28;2.40;;;;;;;;;;5051327;28;20037;-79
2022/09/04 11:54:34;;;;;;;4.28;2.38;;;;;;;;;;5051436;28;20131;-80
2022/09/04 11:57:01;;;;;;;4.18;2.63;;;;;;;;;;5034247;28;20056;-80
2022/09/04 11:59:39;;;;;;;3.38;2.70;;;;;;;;;;5051265;28;20063;-80
2022/09/04 12:02:05;;;;;;;4.18;2.63;;;;;;;;;;5034757;28;20053;-80
2022/09/04 12:04:48;;;;;;;5.63;3.53;;;;;;;;;;5051201;28;20045;-80
2022/09/04 12:07:15;;;;;;;4.53;3.00;;;;;;;;;;5050001;28;20077;-80
2022/09/04 12:09:50;;;;;;;4.68;2.92;;;;;;;;;;5050643;28;20041;-80
2022/09/04 12:12:17;;;;;;;7.40;3.47;;;;;;;;;;5051140;28;20055;-80
2022/09/04 12:14:56;;;;;;;4.55;3.00;;;;;;;;;;5050610;28;20049;-80
2022/09/04 12:17:35;;;;;;;4.20;3.10;;;;;;;;;;5052293;28;20045;-80
2022/09/04 12:20:26;;;;;;;4.38;3.35;;;;;;;;;;5050600;28;20060;-80
2022/09/04 12:22:53;;;;;;;4.03;3.00;;;;;;;;;;5051065;28;20481;-80
2022/09/04 12:25:22;;;;;;;5.55;3.03;;;;;;;;;;5051276;28;20094;-80
2022/09/04 12:28:00;;;;;;;4.25;2.90;;;;;;;;;;5050355;28;20041;-80
2022/09/04 12:30:47;;;;;;;6.53;2.65;;;;;;;;;;5039215;28;20052;-80
2022/09/04 12:33:13;;;;;;;6.75;2.78;;;;;;;;;;5051048;28;20102;-80
2022/09/04 12:35:49;;;;;;;4.45;3.35;;;;;;;;;;5050796;28;20033;-80
2022/09/04 12:38:34;;;;;;;5.22;2.42;;;;;;;;;;5051147;28;20493;-80
2022/09/04 12:41:10;;;;;;;4.95;2.80;;;;;;;;;;5033673;28;20052;-80
2022/09/04 12:43:44;;;;;;;4.05;2.95;;;;;;;;;;5051078;28;20043;-80
2022/09/04 12:46:11;;;;;;;3.20;2.40;;;;;;;;;;5051168;28;20049;-80
2022/09/04 12:48:56;;;;;;;4.47;2.45;;;;;;;;;;5050709;28;20102;-79
2022/09/04 12:51:24;;;;;;;4.13;3.03;;;;;;;;;;5050450;28;20064;-80
2022/09/04 12:54:08;;;;;;;7.10;2.92;;;;;;;;;;5050079;28;20501;-80
2022/09/04 12:56:41;;;;;;;3.30;2.40;;;;;;;;;;5050449;28;20076;-80
2022/09/04 12:59:08;;;;;;;3.60;2.90;;;;;;;;;;5050127;28;20045;-80
2022/09/04 13:01:45;;;;;;;4.93;2.90;;;;;;;;;;5050396;28;20087;-80
2022/09/04 13:04:11;;;;;;;4.82;2.80;;;;;;;;;;5050434;28;20033;-80
2022/09/04 13:06:44;;;;;;;5.05;2.75;;;;;;;;;;5050371;28;20049;-80
2022/09/04 13:09:28;;;;;;;4.10;2.50;;;;;;;;;;5050292;28;20124;-79
2022/09/04 13:12:02;;;;;;;4.38;2.50;;;;;;;;;;5033661;28;20530;-79
2022/09/04 13:14:47;;;;;;;4.90;3.05;;;;;;;;;;5050620;28;20112;-79
2022/09/04 13:17:17;;;;;;;4.78;3.08;;;;;;;;;;5050828;28;20501;-79
2022/09/04 13:19:49;;;;;;;5.05;2.80;;;;;;;;;;5054580;28;20053;-80
2022/09/04 13:22:33;;;;;;;3.53;2.90;;;;;;;;;;5054151;28;20048;-79
2022/09/04 13:25:01;;;;;;;4.07;3.00;;;;;;;;;;5053985;28;20865;-79
2022/09/04 13:27:51;;;;;;;6.00;3.13;;;;;;;;;;5053759;28;20041;-79
2022/09/04 13:30:20;;;;;;;3.40;2.92;;;;;;;;;;5054224;28;20047;-80
2022/09/04 13:32:47;;;;;;;4.38;2.70;;;;;;;;;;5037939;28;20045;-79
2022/09/04 13:35:23;;;;;;;4.88;2.67;;;;;;;;;;5054491;28;20068;-79
2022/09/04 13:38:07;;;;;;;3.70;2.83;;;;;;;;;;5054078;28;20060;-79
2022/09/04 13:40:42;;;;;;;5.15;2.50;;;;;;;;;;5040177;28;20080;-79
2022/09/04 13:43:27;;;;;;;4.93;2.83;;;;;;;;;;5053142;28;20076;-80
2022/09/04 13:45:53;;;;;;;;;;;;;;;;;;5042172;28;20044;-80
2022/09/04 13:48:19;;;;;;;3.58;2.47;;;;;;;;;;5053356;28;19998;-80
2022/09/04 13:50:54;;;;;;;7.88;3.80;;;;;;;;;;5055027;28;20435;-80
2022/09/04 13:53:20;;;;;;;;;;;;;;;;;;5053759;28;20088;-79
2022/09/04 13:56:08;;;;;;;5.30;3.10;;;;;;;;;;5054270;28;20372;-79
2022/09/04 13:58:51;;;;;;;4.45;2.67;;;;;;;;;;5036829;28;20448;-79
2022/09/04 14:01:20;;;;;;;4.75;2.72;;;;;;;;;;5053317;28;20426;-80
2022/09/04 14:03:52;;;;;;;4.55;2.60;;;;;;;;;;5053530;28;20067;-80
2022/09/04 14:06:19;;;;;;;4.53;2.60;;;;;;;;;;5052881;28;20045;-78
2022/09/04 14:08:47;;;;;;;3.92;2.80;;;;;;;;;;5053335;28;20045;-79
2022/09/04 14:11:23;;;;;;;5.10;2.67;;;;;;;;;;5053221;28;20033;-80
2022/09/04 14:14:01;;;;;;;5.32;2.80;;;;;;;;;;5052990;28;20040;-79
2022/09/04 14:16:31;;;;;;;4.78;2.90;;;;;;;;;;5054429;28;20412;-80
2022/09/04 14:19:20;;;;;;;5.45;2.95;;;;;;;;;;5053644;28;20563;-80
2022/09/04 14:21:46;;;;;;;3.88;2.60;;;;;;;;;;5050307;28;20069;-79
2022/09/04 14:24:23;;;;;;;3.40;2.97;;;;;;;;;;5052914;28;20045;-80
2022/09/04 14:26:59;;;;;;;4.43;2.80;;;;;;;;;;5053275;28;20405;-80
2022/09/04 14:29:44;;;;;;;5.60;2.85;;;;;;;;;;5052177;28;20079;-79
2022/09/04 14:32:13;;;;;;;3.90;2.60;;;;;;;;;;5039934;28;20397;-79
2022/09/04 14:34:49;;;;;;;5.18;3.20;;;;;;;;;;5052807;28;20040;-79
2022/09/04 14:37:34;;;;;;;5.10;3.42;;;;;;;;;;5039676;28;20048;-79
2022/09/04 14:40:20;;;;;;;5.38;2.90;;;;;;;;;;5052612;28;20480;-79
2022/09/04 14:42:46;;;;;;;5.25;2.88;;;;;;;;;;5053957;28;20122;-79
2022/09/04 14:45:12;;;;;;;5.22;3.03;;;;;;;;;;5052107;28;20037;-79
2022/09/04 14:47:46;;;;;;;4.15;3.00;;;;;;;;;;5052588;28;20048;-79
2022/09/04 14:50:13;;;;;;;3.53;2.80;;;;;;;;;;5052011;28;20099;-79
2022/09/04 14:52:51;;;;;;;4.78;2.80;;;;;;;;;;5035751;28;20041;-79
2022/09/04 14:55:28;;;;;;;5.28;2.63;;;;;;;;;;5052391;28;20052;-79
2022/09/04 14:58:13;;;;;;;5.70;2.70;;;;;;;;;;5052648;28;20051;-79
2022/09/04 15:01:01;;;;;;;5.25;2.60;;;;;;;;;;5052645;28;20067;-79
2022/09/04 15:03:44;;;;;;;4.70;2.85;;;;;;;;;;5052525;28;20441;-80
2022/09/04 15:06:15;;;;;;;3.67;2.60;;;;;;;;;;5039402;28;20080;-79
2022/09/04 15:08:43;;;;;;;5.30;2.83;;;;;;;;;;5052185;28;20056;-79
2022/09/04 15:11:12;;;;;;;3.45;2.65;;;;;;;;;;5051889;28;20033;-79
2022/09/04 15:13:47;;;;;;;4.03;2.90;;;;;;;;;;5052097;28;20409;-78
2022/09/04 15:16:19;;;;;;;5.55;3.08;;;;;;;;;;5051312;28;20043;-79
2022/09/04 15:18:54;;;;;;;6.18;3.03;;;;;;;;;;5052113;28;20102;-79
2022/09/04 15:21:39;;;;;;;4.18;3.08;;;;;;;;;;5035370;28;20362;-78
2022/09/04 15:24:14;;;;;;;4.40;2.97;;;;;;;;;;5034679;28;20120;-78
2022/09/04 15:26:54;;;;;;;5.45;3.05;;;;;;;;;;5051903;28;20044;-80
2022/09/04 15:29:26;;;;;;;3.72;2.97;;;;;;;;;;5052401;28;20052;-79
2022/09/04 15:31:59;;;;;;;4.68;2.75;;;;;;;;;;5053109;28;20037;-80
2022/09/04 15:34:26;;;;;;;4.22;3.38;;;;;;;;;;5051507;28;20051;-79
2022/09/04 15:36:53;;;;;;;8.40;3.22;;;;;;;;;;5035445;28;20071;-80
2022/09/04 15:39:31;;;;;;;4.57;2.92;;;;;;;;;;5051594;28;20566;-80